createdAt,value
2023-03-17T00:01:55.999Z,5.29
2023-03-17T00:04:24.891Z,5.71
2023-03-17T00:06:52.908Z,5.75
2023-03-17T00:09:21.119Z,5.69
2023-03-17T00:11:48.868Z,5.68
2023-03-17T00:14:16.634Z,5.64
2023-03-17T00:16:48.398Z,5.76
2023-03-17T00:19:26.366Z,5.70
2023-03-17T00:21:53.344Z,5.83
2023-03-17T00:24:20.356Z,5.81
2023-03-17T00:26:48.182Z,5.76
2023-03-17T00:29:16.166Z,5.83
2023-03-17T00:31:45.470Z,5.79
2023-03-17T00:34:17.183Z,5.85
2023-03-17T00:36:48.012Z,5.81
2023-03-17T00:41:43.504Z,5.83
2023-03-17T00:44:11.764Z,5.74
2023-03-17T00:46:41.328Z,5.72
2023-03-17T00:49:21.444Z,5.64
2023-03-17T00:51:49.698Z,5.70
2023-03-17T00:54:18.574Z,5.63
2023-03-17T00:56:46.126Z,5.60
2023-03-17T00:59:26.258Z,5.52
2023-03-17T01:01:54.310Z,5.59
2023-03-17T01:04:21.420Z,5.40
2023-03-17T01:06:50.314Z,5.40
2023-03-17T01:09:20.213Z,5.31
2023-03-17T01:11:48.558Z,5.44
2023-03-17T01:14:15.963Z,5.25
2023-03-17T01:16:44.573Z,5.43
2023-03-17T01:19:15.099Z,5.44
2023-03-17T01:21:42.529Z,5.41
2023-03-17T01:24:09.750Z,5.39
2023-03-17T01:26:37.761Z,5.32
2023-03-17T01:29:06.304Z,5.30
2023-03-17T01:31:34.761Z,5.40
2023-03-17T01:34:02.555Z,5.35
2023-03-17T01:36:29.551Z,5.34
2023-03-17T01:38:57.168Z,5.37
2023-03-17T01:41:24.996Z,4.90
2023-03-17T01:43:52.059Z,5.31
2023-03-17T01:46:27.850Z,5.34
2023-03-17T01:48:57.678Z,5.36
2023-03-17T01:51:27.614Z,5.34
2023-03-17T01:53:56.386Z,5.34
2023-03-17T01:56:23.597Z,5.37
2023-03-17T01:58:54.204Z,5.37
2023-03-17T02:01:27.835Z,5.36
2023-03-17T02:03:55.158Z,5.37
2023-03-17T02:06:22.185Z,5.35
2023-03-17T02:08:49.188Z,5.35
2023-03-17T02:11:16.934Z,5.25
2023-03-17T02:13:44.677Z,5.35
2023-03-17T02:16:17.810Z,5.18
2023-03-17T02:18:47.705Z,5.17
2023-03-17T02:21:28.099Z,5.11
2023-03-17T02:23:56.117Z,4.69
2023-03-17T02:26:25.900Z,5.11
2023-03-17T02:28:53.666Z,5.04
2023-03-17T02:31:21.260Z,5.15
2023-03-17T02:33:48.276Z,5.12
2023-03-17T02:36:15.675Z,5.06
2023-03-17T02:38:45.441Z,4.85
2023-03-17T02:41:12.602Z,4.98
2023-03-17T02:43:41.278Z,4.51
2023-03-17T02:46:11.701Z,4.90
2023-03-17T02:48:39.812Z,4.91
2023-03-17T02:51:07.342Z,4.91
2023-03-17T02:53:34.429Z,4.82
2023-03-17T02:56:02.147Z,4.91
2023-03-17T02:58:29.228Z,4.85
2023-03-17T03:00:56.510Z,4.57
2023-03-17T03:03:23.601Z,4.93
2023-03-17T03:05:50.902Z,4.85
2023-03-17T03:08:17.902Z,4.85
2023-03-17T03:10:44.994Z,4.89
2023-03-17T03:13:12.459Z,4.87
2023-03-17T03:15:43.171Z,4.88
2023-03-17T03:18:10.254Z,4.86
2023-03-17T03:20:37.260Z,4.83
2023-03-17T03:23:04.440Z,4.73
2023-03-17T03:25:32.097Z,4.72
2023-03-17T03:27:59.165Z,4.73
2023-03-17T03:30:26.978Z,4.80
2023-03-17T03:32:54.014Z,4.86
2023-03-17T03:35:21.509Z,4.85
2023-03-17T03:37:48.530Z,4.86
2023-03-17T03:40:16.045Z,4.76
2023-03-17T03:42:43.088Z,4.83
2023-03-17T03:45:10.643Z,4.70
2023-03-17T03:47:37.622Z,4.72
2023-03-17T03:50:05.165Z,4.73
2023-03-17T03:52:32.412Z,4.68
2023-03-17T03:54:59.456Z,4.64
2023-03-17T03:57:26.472Z,4.58
2023-03-17T03:59:53.460Z,4.61
2023-03-17T04:02:20.618Z,4.64
2023-03-17T04:04:48.135Z,4.40
2023-03-17T04:07:15.613Z,4.47
2023-03-17T04:09:42.641Z,4.39
2023-03-17T04:12:10.021Z,4.42
2023-03-17T04:14:37.039Z,4.42
2023-03-17T04:17:05.112Z,4.48
2023-03-17T04:19:32.338Z,4.55
2023-03-17T04:21:59.361Z,4.48
2023-03-17T04:24:27.626Z,4.50
2023-03-17T04:26:54.806Z,4.52
2023-03-17T04:29:21.874Z,4.54
2023-03-17T04:31:48.955Z,4.52
2023-03-17T04:34:18.581Z,4.57
2023-03-17T04:36:47.170Z,4.61
2023-03-17T04:39:15.436Z,4.63
2023-03-17T04:41:42.529Z,4.54
2023-03-17T04:44:09.538Z,4.47
2023-03-17T04:46:36.617Z,4.46
2023-03-17T04:49:04.423Z,4.36
2023-03-17T04:51:31.712Z,4.28
2023-03-17T04:53:58.769Z,4.31
2023-03-17T04:56:25.980Z,4.32
2023-03-17T04:58:53.058Z,4.27
2023-03-17T05:01:21.595Z,4.26
2023-03-17T05:03:49.086Z,4.31
2023-03-17T05:06:16.565Z,4.21
2023-03-17T05:08:46.928Z,4.40
2023-03-17T05:11:14.356Z,4.29
2023-03-17T05:13:41.969Z,4.24
2023-03-17T05:16:09.880Z,4.31
2023-03-17T05:18:37.786Z,4.36
2023-03-17T05:21:07.787Z,4.29
2023-03-17T05:23:35.248Z,3.95
2023-03-17T05:26:02.456Z,4.25
2023-03-17T05:28:29.504Z,4.25
2023-03-17T05:30:56.682Z,4.26
2023-03-17T05:33:24.526Z,4.29
2023-03-17T05:35:52.204Z,4.32
2023-03-17T05:38:19.333Z,4.38
2023-03-17T05:40:50.012Z,4.37
2023-03-17T05:43:17.338Z,4.38
2023-03-17T05:45:45.468Z,4.47
2023-03-17T05:48:13.105Z,4.45
2023-03-17T05:50:41.512Z,4.44
2023-03-17T05:53:08.981Z,4.37
2023-03-17T05:55:36.164Z,4.01
2023-03-17T05:58:05.050Z,4.42
2023-03-17T06:00:32.879Z,4.38
2023-03-17T06:03:00.065Z,4.31
2023-03-17T06:05:27.168Z,4.37
2023-03-17T06:07:56.515Z,4.37
2023-03-17T06:10:24.262Z,4.45
2023-03-17T06:12:51.488Z,4.45
2023-03-17T06:15:18.958Z,4.46
2023-03-17T06:17:46.240Z,4.46
2023-03-17T06:20:14.146Z,4.55
2023-03-17T06:22:55.235Z,4.56
2023-03-17T06:25:28.428Z,4.63
2023-03-17T06:27:56.167Z,4.69
2023-03-17T06:30:23.235Z,4.70
2023-03-17T06:32:50.365Z,4.79
2023-03-17T06:35:18.032Z,4.75
2023-03-17T06:37:45.286Z,4.94
2023-03-17T06:40:13.016Z,4.97
2023-03-17T06:42:40.069Z,5.06
2023-03-17T06:45:09.254Z,5.19
2023-03-17T06:47:37.229Z,5.32
2023-03-17T06:50:05.803Z,5.43
2023-03-17T06:52:32.843Z,5.45
2023-03-17T06:54:59.838Z,5.49
2023-03-17T06:57:26.995Z,5.56
2023-03-17T06:59:54.346Z,5.64
2023-03-17T07:02:21.373Z,5.73
2023-03-17T07:04:48.552Z,5.83
2023-03-17T07:07:16.215Z,5.91
2023-03-17T07:09:43.229Z,6.11
2023-03-17T07:12:10.329Z,6.15
2023-03-17T07:14:37.590Z,6.42
2023-03-17T07:17:05.312Z,6.43
2023-03-17T07:19:33.283Z,6.31
2023-03-17T07:22:00.397Z,6.58
2023-03-17T07:24:27.459Z,6.63
2023-03-17T07:26:54.550Z,6.60
2023-03-17T07:29:22.672Z,6.67
2023-03-17T07:31:49.989Z,6.82
2023-03-17T07:34:17.750Z,6.85
2023-03-17T07:36:44.839Z,7.00
2023-03-17T07:39:12.697Z,7.12
2023-03-17T07:41:39.812Z,7.17
2023-03-17T07:44:11.317Z,7.23
2023-03-17T07:46:38.907Z,7.27
2023-03-17T07:49:06.259Z,7.30
2023-03-17T07:51:33.335Z,7.37
2023-03-17T07:54:03.975Z,7.41
2023-03-17T07:56:32.609Z,7.47
2023-03-17T07:58:59.943Z,7.52
2023-03-17T08:01:27.997Z,7.57
2023-03-17T08:03:56.358Z,7.65
2023-03-17T08:06:25.255Z,7.74
2023-03-17T08:08:53.585Z,7.86
2023-03-17T08:11:21.137Z,7.97
2023-03-17T08:13:48.545Z,8.06
2023-03-17T08:16:15.946Z,8.24
2023-03-17T08:18:43.088Z,8.36
2023-03-17T08:21:10.713Z,8.47
2023-03-17T08:23:37.759Z,8.58
2023-03-17T08:26:04.964Z,8.78
2023-03-17T08:28:32.484Z,8.84
2023-03-17T08:31:12.421Z,9.26
2023-03-17T08:33:42.332Z,9.04
2023-03-17T08:36:11.245Z,9.62
2023-03-17T08:38:40.490Z,9.65
2023-03-17T08:41:10.752Z,9.48
2023-03-17T08:43:38.190Z,9.70
2023-03-17T08:46:14.394Z,9.66
2023-03-17T08:48:41.425Z,9.55
2023-03-17T08:51:09.138Z,9.48
2023-03-17T08:53:36.176Z,9.33
2023-03-17T08:56:04.919Z,9.34
2023-03-17T08:58:31.931Z,9.44
2023-03-17T09:01:00.592Z,9.36
2023-03-17T09:03:28.933Z,9.31
2023-03-17T09:05:56.800Z,9.15
2023-03-17T09:08:24.062Z,9.52
2023-03-17T09:10:51.893Z,9.53
2023-03-17T09:13:19.091Z,9.63
2023-03-17T09:15:46.116Z,9.71
2023-03-17T09:18:14.518Z,9.82
2023-03-17T09:20:41.568Z,9.91
2023-03-17T09:23:10.577Z,9.96
2023-03-17T09:25:38.967Z,9.92
2023-03-17T09:28:07.186Z,10.00
2023-03-17T09:30:34.825Z,10.06
2023-03-17T09:33:01.865Z,10.11
2023-03-17T09:35:31.266Z,10.23
2023-03-17T09:37:58.469Z,10.33
2023-03-17T09:40:32.846Z,10.45
2023-03-17T09:43:29.021Z,10.47
2023-03-17T09:45:56.202Z,10.63
2023-03-17T09:48:44.484Z,10.85
2023-03-17T09:51:14.259Z,10.83
2023-03-17T09:53:54.369Z,10.51
2023-03-17T09:56:23.252Z,10.91
2023-03-17T09:59:07.647Z,11.02
2023-03-17T10:01:35.041Z,11.10
2023-03-17T10:04:02.606Z,11.26
2023-03-17T10:06:37.823Z,11.40
2023-03-17T10:09:18.317Z,11.47
2023-03-17T10:11:54.360Z,11.17
2023-03-17T10:14:38.454Z,11.68
2023-03-17T10:17:17.539Z,11.88
2023-03-17T10:19:56.613Z,11.94
2023-03-17T10:22:36.219Z,11.97
2023-03-17T10:25:14.966Z,12.07
2023-03-17T10:27:44.760Z,12.00
2023-03-17T10:30:18.287Z,12.08
2023-03-17T10:32:46.530Z,11.95
2023-03-17T10:35:15.436Z,12.23
2023-03-17T10:37:44.009Z,12.24
2023-03-17T10:40:24.382Z,12.36
2023-03-17T10:43:07.605Z,12.41
2023-03-17T10:45:42.754Z,12.39
2023-03-17T10:48:18.934Z,12.51
2023-03-17T10:50:49.358Z,12.52
2023-03-17T10:53:29.559Z,12.54
2023-03-17T10:56:00.900Z,12.52
2023-03-17T10:58:46.927Z,12.54
2023-03-17T11:01:30.057Z,12.51
2023-03-17T11:03:57.634Z,12.53
2023-03-17T11:06:36.888Z,12.55
2023-03-17T11:09:16.762Z,12.61
2023-03-17T11:11:46.891Z,12.68
2023-03-17T11:14:16.950Z,12.82
2023-03-17T11:16:54.944Z,13.01
2023-03-17T11:19:29.366Z,13.15
2023-03-17T11:21:59.996Z,13.31
2023-03-17T11:24:33.465Z,13.43
2023-03-17T11:27:15.232Z,13.60
2023-03-17T11:29:51.007Z,13.76
2023-03-17T11:32:39.866Z,13.84
2023-03-17T11:35:38.818Z,13.94
2023-03-17T11:38:26.735Z,14.05
2023-03-17T11:41:12.466Z,14.21
2023-03-17T11:43:55.685Z,14.30
2023-03-17T11:46:29.465Z,14.40
2023-03-17T11:49:17.564Z,14.54
2023-03-17T11:52:06.162Z,14.62
2023-03-17T11:55:00.184Z,14.55
2023-03-17T11:57:35.147Z,14.30
2023-03-17T12:00:07.387Z,14.63
2023-03-17T12:02:57.969Z,14.95
2023-03-17T12:05:27.280Z,15.09
2023-03-17T12:08:02.012Z,15.30
2023-03-17T12:10:52.183Z,15.30
2023-03-17T12:13:31.013Z,15.43
2023-03-17T12:16:04.376Z,15.41
2023-03-17T12:18:49.153Z,15.45
2023-03-17T12:21:32.770Z,15.26
2023-03-17T12:24:05.615Z,15.35
2023-03-17T12:26:48.414Z,15.38
2023-03-17T12:29:37.733Z,15.31
2023-03-17T12:32:21.660Z,15.15
2023-03-17T12:34:57.293Z,15.60
2023-03-17T12:37:27.579Z,15.68
2023-03-17T12:40:00.771Z,15.78
2023-03-17T12:42:54.614Z,15.63
2023-03-17T12:45:26.472Z,15.72
2023-03-17T12:48:18.642Z,15.57
2023-03-17T12:51:19.583Z,15.48
2023-03-17T12:53:48.772Z,15.47
2023-03-17T12:56:29.878Z,15.44
2023-03-17T12:59:07.072Z,15.70
2023-03-17T13:01:38.564Z,15.72
2023-03-17T13:04:16.834Z,15.76
2023-03-17T13:06:46.796Z,15.76
2023-03-17T13:09:32.067Z,15.98
2023-03-17T13:12:01.182Z,16.01
2023-03-17T13:14:46.900Z,15.79
2023-03-17T13:17:17.887Z,15.71
2023-03-17T13:20:04.271Z,15.40
2023-03-17T13:22:40.424Z,15.45
2023-03-17T13:25:26.622Z,15.78
2023-03-17T13:27:53.793Z,15.73
2023-03-17T13:30:26.843Z,15.78
2023-03-17T13:33:02.435Z,15.88
2023-03-17T13:35:44.677Z,15.98
2023-03-17T13:39:18.626Z,16.00
2023-03-17T13:42:01.128Z,16.05
2023-03-17T13:44:54.171Z,16.00
2023-03-17T13:47:24.549Z,16.22
2023-03-17T13:49:59.652Z,16.33
2023-03-17T13:52:49.460Z,16.48
2023-03-17T13:55:20.301Z,16.35
2023-03-17T13:58:11.089Z,16.60
2023-03-17T14:00:41.521Z,16.39
2023-03-17T14:03:17.445Z,16.49
2023-03-17T14:05:49.377Z,16.35
2023-03-17T14:08:22.215Z,16.46
2023-03-17T14:10:59.539Z,16.32
2023-03-17T14:13:38.534Z,16.43
2023-03-17T14:16:15.794Z,16.31
2023-03-17T14:18:49.635Z,16.04
2023-03-17T14:21:29.334Z,15.93
2023-03-17T14:23:58.757Z,15.86
2023-03-17T14:26:29.390Z,15.84
2023-03-17T14:29:01.052Z,15.84
2023-03-17T14:31:29.209Z,15.41
2023-03-17T14:33:59.069Z,15.84
2023-03-17T14:36:28.618Z,15.81
2023-03-17T14:38:56.760Z,15.77
2023-03-17T14:41:26.938Z,15.67
2023-03-17T14:43:59.005Z,15.74
2023-03-17T14:46:31.156Z,15.64
2023-03-17T14:49:14.224Z,15.48
2023-03-17T14:51:42.097Z,15.46
2023-03-17T14:54:30.392Z,15.37
2023-03-17T14:57:04.932Z,15.26
2023-03-17T14:59:40.954Z,15.22
2023-03-17T15:02:24.371Z,15.17
2023-03-17T15:04:54.069Z,15.11
2023-03-17T15:07:42.320Z,15.13
2023-03-17T15:10:19.458Z,15.12
2023-03-17T15:12:48.192Z,15.11
2023-03-17T15:15:28.655Z,15.01
2023-03-17T15:17:58.047Z,15.03
2023-03-17T15:20:25.524Z,15.01
2023-03-17T15:22:55.241Z,15.04
2023-03-17T15:25:45.248Z,15.01
2023-03-17T15:28:18.172Z,14.72
2023-03-17T15:30:48.480Z,14.76
2023-03-17T15:33:27.947Z,14.71
2023-03-17T15:36:00.225Z,14.75
2023-03-17T15:38:28.056Z,14.54
2023-03-17T15:40:55.617Z,14.52
2023-03-17T15:43:23.184Z,14.48
2023-03-17T15:46:16.783Z,14.48
2023-03-17T15:48:43.806Z,14.48
2023-03-17T15:51:10.796Z,14.49
2023-03-17T15:53:37.876Z,14.40
2023-03-17T15:56:06.057Z,14.43
2023-03-17T15:58:33.126Z,13.90
2023-03-17T16:01:01.337Z,14.26
2023-03-17T16:03:33.955Z,14.28
2023-03-17T16:06:02.713Z,14.26
2023-03-17T16:08:30.100Z,14.17
2023-03-17T16:10:57.308Z,14.17
2023-03-17T16:13:24.475Z,14.04
2023-03-17T16:15:57.493Z,14.08
2023-03-17T16:18:37.564Z,13.94
2023-03-17T16:21:05.116Z,13.83
2023-03-17T16:23:36.894Z,13.86
2023-03-17T16:26:14.637Z,13.79
2023-03-17T16:28:45.381Z,13.84
2023-03-17T16:31:30.062Z,13.74
2023-03-17T16:33:57.576Z,13.69
2023-03-17T16:36:25.333Z,13.65
2023-03-17T16:38:52.966Z,13.60
2023-03-17T16:41:24.279Z,13.58
2023-03-17T16:43:55.097Z,13.25
2023-03-17T16:46:22.609Z,13.49
2023-03-17T16:48:50.824Z,13.47
2023-03-17T16:51:18.477Z,13.51
2023-03-17T16:53:46.457Z,13.46
2023-03-17T16:56:17.719Z,13.43
2023-03-17T16:58:45.588Z,13.33
2023-03-17T17:01:16.233Z,13.28
2023-03-17T17:03:44.088Z,13.22
2023-03-17T17:06:14.221Z,13.10
2023-03-17T17:08:42.863Z,12.93
2023-03-17T17:11:12.918Z,13.01
2023-03-17T17:13:44.100Z,12.79
2023-03-17T17:16:26.579Z,12.90
2023-03-17T17:18:54.177Z,12.80
2023-03-17T17:21:21.358Z,12.74
2023-03-17T17:23:48.444Z,12.65
2023-03-17T17:26:15.668Z,12.50
2023-03-17T17:28:42.751Z,12.54
2023-03-17T17:31:10.658Z,12.47
2023-03-17T17:33:38.136Z,12.38
2023-03-17T17:36:11.510Z,12.54
2023-03-17T17:38:38.665Z,12.48
2023-03-17T17:41:06.853Z,12.22
2023-03-17T17:44:08.061Z,12.50
2023-03-17T17:46:35.291Z,12.52
2023-03-17T17:49:03.391Z,12.44
2023-03-17T17:51:32.563Z,12.28
2023-03-17T17:53:59.583Z,12.33
2023-03-17T17:56:26.655Z,12.17
2023-03-17T17:58:53.703Z,11.91
2023-03-17T18:01:22.538Z,12.16
2023-03-17T18:03:49.722Z,12.16
2023-03-17T18:06:17.843Z,12.08
2023-03-17T18:08:45.496Z,12.04
2023-03-17T18:11:12.712Z,11.92
2023-03-17T18:13:40.866Z,11.87
2023-03-17T18:16:12.174Z,11.86
2023-03-17T18:18:42.234Z,11.74
2023-03-17T18:21:09.682Z,11.63
2023-03-17T18:23:46.727Z,11.49
2023-03-17T18:26:15.545Z,11.48
2023-03-17T18:28:43.402Z,11.14
2023-03-17T18:31:14.316Z,11.44
2023-03-17T18:33:43.362Z,11.43
2023-03-17T18:36:11.338Z,11.42
2023-03-17T18:38:38.813Z,11.31
2023-03-17T18:41:07.122Z,10.96
2023-03-17T18:43:34.191Z,11.01
2023-03-17T18:46:01.217Z,10.96
2023-03-17T18:48:28.353Z,10.93
2023-03-17T18:50:55.493Z,10.77
2023-03-17T18:53:22.854Z,10.80
2023-03-17T18:55:49.831Z,10.79
2023-03-17T18:58:17.062Z,10.83
2023-03-17T19:00:44.281Z,10.35
2023-03-17T19:03:11.315Z,10.74
2023-03-17T19:05:39.390Z,10.73
2023-03-17T19:08:06.701Z,10.41
2023-03-17T19:10:34.202Z,10.58
2023-03-17T19:13:02.034Z,10.63
2023-03-17T19:15:29.068Z,10.63
2023-03-17T19:17:56.084Z,10.70
2023-03-17T19:20:23.094Z,10.63
2023-03-17T19:22:53.128Z,10.79
2023-03-17T19:25:21.169Z,10.69
2023-03-17T19:27:48.214Z,10.74
2023-03-17T19:30:15.729Z,10.84
2023-03-17T19:32:43.525Z,10.73
2023-03-17T19:35:11.574Z,10.80
2023-03-17T19:37:38.851Z,10.36
2023-03-17T19:40:09.598Z,10.51
2023-03-17T19:42:36.985Z,10.25
2023-03-17T19:45:05.126Z,10.45
2023-03-17T19:47:32.189Z,10.55
2023-03-17T19:49:59.385Z,10.56
2023-03-17T19:52:26.478Z,10.72
2023-03-17T19:54:53.505Z,10.52
2023-03-17T19:57:20.869Z,10.56
2023-03-17T19:59:48.035Z,10.34
2023-03-17T20:02:15.921Z,10.35
2023-03-17T20:04:43.123Z,10.40
2023-03-17T20:07:10.590Z,10.31
2023-03-17T20:09:37.912Z,10.19
2023-03-17T20:12:05.754Z,10.32
2023-03-17T20:14:32.867Z,10.20
2023-03-17T20:16:59.846Z,10.25
2023-03-17T20:19:27.489Z,10.22
2023-03-17T20:21:54.944Z,10.18
2023-03-17T20:24:22.625Z,10.12
2023-03-17T20:26:50.031Z,9.94
2023-03-17T20:29:17.645Z,10.01
2023-03-17T20:31:44.715Z,10.03
2023-03-17T20:34:12.200Z,9.94
2023-03-17T20:36:42.267Z,9.83
2023-03-17T20:39:14.661Z,9.91
2023-03-17T20:41:41.688Z,9.91
2023-03-17T20:44:08.816Z,9.75
2023-03-17T20:46:36.026Z,9.80
2023-03-17T20:49:04.024Z,9.95
2023-03-17T20:51:32.270Z,9.96
2023-03-17T20:54:00.661Z,9.97
2023-03-17T20:56:29.794Z,9.91
2023-03-17T20:58:58.300Z,9.93
2023-03-17T21:01:25.545Z,9.80
2023-03-17T21:03:53.395Z,9.70
2023-03-17T21:06:20.674Z,9.68
2023-03-17T21:08:47.699Z,9.73
2023-03-17T21:11:17.809Z,9.62
2023-03-17T21:13:44.944Z,9.65
2023-03-17T21:16:21.532Z,9.54
2023-03-17T21:18:48.561Z,9.58
2023-03-17T21:21:16.516Z,9.49
2023-03-17T21:23:43.968Z,9.48
2023-03-17T21:26:12.247Z,9.52
2023-03-17T21:28:41.521Z,9.17
2023-03-17T21:31:10.682Z,9.33
2023-03-17T21:33:38.100Z,9.56
2023-03-17T21:36:06.084Z,9.72
2023-03-17T21:38:33.125Z,9.66
2023-03-17T21:41:30.357Z,9.45
2023-03-17T21:43:57.997Z,9.44
2023-03-17T21:46:25.502Z,9.41
2023-03-17T21:48:53.942Z,9.28
2023-03-17T21:51:20.990Z,9.23
2023-03-17T21:53:48.489Z,9.16
2023-03-17T21:56:16.137Z,9.27
2023-03-17T21:58:43.216Z,9.18
2023-03-17T22:01:11.474Z,8.97
2023-03-17T22:03:39.851Z,9.12
2023-03-17T22:06:07.304Z,9.27
2023-03-17T22:08:34.694Z,9.26
2023-03-17T22:11:07.336Z,9.44
2023-03-17T22:13:34.814Z,9.37
2023-03-17T22:16:02.122Z,9.42
2023-03-17T22:18:29.122Z,9.63
2023-03-17T22:20:57.589Z,9.72
2023-03-17T22:23:26.293Z,9.59
2023-03-17T22:25:53.428Z,9.68
2023-03-17T22:28:20.478Z,9.63
2023-03-17T22:30:47.501Z,9.62
2023-03-17T22:33:15.373Z,9.56
2023-03-17T22:35:42.447Z,9.55
2023-03-17T22:38:11.392Z,9.55
2023-03-17T22:40:38.624Z,9.17
2023-03-17T22:43:05.729Z,9.35
2023-03-17T22:45:32.740Z,9.36
2023-03-17T22:47:59.804Z,9.31
2023-03-17T22:50:27.145Z,9.00
2023-03-17T22:52:54.190Z,9.06
2023-03-17T22:55:21.376Z,9.31
2023-03-17T22:57:48.594Z,9.15
2023-03-17T23:00:16.989Z,8.66
2023-03-17T23:02:46.234Z,9.19
2023-03-17T23:05:14.488Z,9.03
2023-03-17T23:07:50.244Z,9.11
2023-03-17T23:10:22.948Z,9.03
2023-03-17T23:12:51.007Z,8.97
2023-03-17T23:15:19.623Z,8.99
2023-03-17T23:17:47.383Z,8.60
2023-03-17T23:20:15.245Z,8.84
2023-03-17T23:22:42.468Z,8.89
2023-03-17T23:25:10.656Z,8.97
2023-03-17T23:27:37.648Z,9.14
2023-03-17T23:30:05.787Z,9.14
2023-03-17T23:32:34.054Z,8.95
2023-03-17T23:35:01.280Z,8.97
2023-03-17T23:37:28.401Z,8.81
2023-03-17T23:39:56.135Z,8.85
2023-03-17T23:42:23.134Z,8.82
2023-03-17T23:44:50.327Z,8.85
2023-03-17T23:47:17.930Z,8.75
2023-03-17T23:49:44.941Z,8.87
2023-03-17T23:52:12.158Z,8.83
2023-03-17T23:54:39.628Z,8.58
2023-03-17T23:57:07.685Z,8.86
2023-03-17T23:59:34.893Z,8.98
